createdAt,value
2022-08-02T00:04:22.413Z,95.90
2022-08-02T00:14:27.514Z,95.90
2022-08-02T00:24:31.331Z,95.90
2022-08-02T00:34:38.755Z,95.70
2022-08-02T00:44:42.568Z,96.00
2022-08-02T00:54:47.644Z,96.10
2022-08-02T01:04:51.359Z,96.70
2022-08-02T01:14:59.930Z,97.30
2022-08-02T01:25:20.022Z,97.20
2022-08-02T01:35:30.503Z,97.40
2022-08-02T01:45:55.076Z,97.60
2022-08-02T01:56:01.506Z,97.40
2022-08-02T02:06:08.465Z,97.70
2022-08-02T02:16:15.404Z,97.60
2022-08-02T02:26:31.127Z,97.80
2022-08-02T02:36:38.603Z,98.00
2022-08-02T02:46:43.576Z,98.40
2022-08-02T02:56:49.127Z,98.30
2022-08-02T03:06:52.954Z,98.30
2022-08-02T03:16:58.159Z,98.30
2022-08-02T03:27:01.854Z,98.40
2022-08-02T03:37:07.239Z,98.40
2022-08-02T03:47:11.643Z,99.20
2022-08-02T03:57:17.452Z,99.80
2022-08-02T04:08:32.822Z,99.90
2022-08-02T04:17:52.212Z,99.80
2022-08-02T04:28:17.379Z,99.30
2022-08-02T04:38:21.840Z,99.30
2022-08-02T04:48:28.328Z,99.80
2022-08-02T04:58:41.095Z,99.90
2022-08-02T05:08:52.744Z,99.90
2022-08-02T05:18:58.473Z,99.90
2022-08-02T05:29:03.227Z,99.90
2022-08-02T05:39:12.401Z,99.90
2022-08-02T05:49:22.665Z,99.90
2022-08-02T05:59:35.939Z,99.90
2022-08-02T06:09:41.669Z,99.60
2022-08-02T06:19:52.430Z,98.20
2022-08-02T06:29:57.108Z,97.40
2022-08-02T06:40:11.034Z,96.10
2022-08-02T06:50:14.961Z,95.60
2022-08-02T07:00:20.295Z,95.40
2022-08-02T07:10:24.401Z,95.30
2022-08-02T07:20:30.128Z,95.00
2022-08-02T07:30:34.192Z,93.20
2022-08-02T07:40:39.733Z,92.00
2022-08-02T07:50:43.650Z,91.60
2022-08-02T08:00:48.896Z,90.60
2022-08-02T08:10:52.697Z,87.60
2022-08-02T08:20:58.081Z,87.50
2022-08-02T08:31:01.951Z,83.50
2022-08-02T08:41:08.401Z,80.10
2022-08-02T08:51:16.830Z,77.20
2022-08-02T09:01:22.282Z,73.30
2022-08-02T09:11:27.345Z,71.70
2022-08-02T09:21:38.436Z,70.20
2022-08-02T09:31:50.020Z,68.90
2022-08-02T09:42:11.418Z,67.70
2022-08-02T09:52:16.334Z,64.20
2022-08-02T10:02:22.920Z,64.10
2022-08-02T10:12:27.375Z,63.20
2022-08-02T10:22:35.118Z,61.90
2022-08-02T10:32:45.753Z,62.70
2022-08-02T10:42:53.495Z,62.60
2022-08-02T10:53:25.669Z,60.10
2022-08-02T11:03:41.957Z,59.40
2022-08-02T11:14:03.751Z,58.60
2022-08-02T11:24:30.997Z,56.70
2022-08-02T11:34:37.447Z,56.80
2022-08-02T11:44:44.689Z,54.80
2022-08-02T11:54:50.696Z,54.90
2022-08-02T12:04:58.860Z,51.80
2022-08-02T12:15:02.701Z,51.40
2022-08-02T12:25:34.101Z,51.20
2022-08-02T12:35:39.060Z,50.20
2022-08-02T12:45:53.062Z,49.30
2022-08-02T12:56:02.509Z,46.90
2022-08-02T13:06:32.209Z,47.10
2022-08-02T13:16:33.078Z,47.00
2022-08-02T13:26:38.722Z,46.30
2022-08-02T13:36:42.806Z,45.40
2022-08-02T13:46:48.386Z,44.90
2022-08-02T13:56:52.240Z,45.20
2022-08-02T14:06:59.527Z,43.60
2022-08-02T14:17:03.417Z,43.00
2022-08-02T14:27:08.997Z,43.40
2022-08-02T14:37:12.902Z,41.40
2022-08-02T14:47:18.889Z,42.00
2022-08-02T14:57:22.670Z,41.10
2022-08-02T15:07:29.160Z,40.30
2022-08-02T15:17:32.992Z,39.00
2022-08-02T15:27:38.085Z,38.50
2022-08-02T15:37:43.346Z,39.50
2022-08-02T15:47:50.699Z,39.20
2022-08-02T15:57:54.576Z,39.80
2022-08-02T16:07:59.750Z,40.00
2022-08-02T16:18:03.506Z,40.40
2022-08-02T16:28:08.757Z,39.90
2022-08-02T16:38:12.690Z,40.50
2022-08-02T16:48:18.362Z,40.80
2022-08-02T16:58:22.215Z,39.50
2022-08-02T17:08:32.155Z,38.20
2022-08-02T17:18:42.563Z,35.60
2022-08-02T17:29:14.500Z,34.50
2022-08-02T17:39:12.030Z,31.10
2022-08-02T17:49:20.993Z,29.70
2022-08-02T17:59:30.633Z,29.20
2022-08-02T18:09:46.892Z,30.00
2022-08-02T18:19:55.399Z,33.00
2022-08-02T18:30:05.401Z,34.10
2022-08-02T18:40:11.369Z,40.20
2022-08-02T18:50:17.434Z,38.80
2022-08-02T19:00:25.512Z,38.50
2022-08-02T19:10:31.058Z,42.00
2022-08-02T19:20:36.015Z,46.60
2022-08-02T19:30:44.345Z,49.60
2022-08-02T19:40:48.123Z,52.10
2022-08-02T19:50:56.725Z,55.80
2022-08-02T20:01:04.969Z,56.60
2022-08-02T20:11:14.963Z,57.00
2022-08-02T20:21:34.176Z,56.80
2022-08-02T20:31:41.822Z,57.30
2022-08-02T20:41:48.513Z,58.90
2022-08-02T20:51:58.080Z,57.80
2022-08-02T21:02:04.000Z,59.50
2022-08-02T21:12:12.491Z,62.80
2022-08-02T21:22:18.218Z,66.60
2022-08-02T21:32:33.003Z,63.80
2022-08-02T21:42:40.009Z,64.50
2022-08-02T21:52:52.426Z,66.70
2022-08-02T22:02:56.573Z,66.40
2022-08-02T22:13:01.736Z,66.20
2022-08-02T22:23:12.976Z,64.60
2022-08-02T22:33:47.209Z,65.80
2022-08-02T22:44:05.445Z,66.40
2022-08-02T22:54:11.898Z,67.90
2022-08-02T23:04:15.774Z,67.90
2022-08-02T23:14:23.865Z,68.60
2022-08-02T23:24:28.410Z,71.60
2022-08-02T23:34:33.962Z,73.80
2022-08-02T23:44:37.716Z,73.30
2022-08-02T23:54:42.983Z,74.80
